sensor_id;sensor_type;location;lat;lon;timestamp;temperature;humidity
20722;DHT22;10522;52.198;9.890;2023-03-31T00:02:01;10.70;99.90
20722;DHT22;10522;52.198;9.890;2023-03-31T00:04:27;10.70;99.90
20722;DHT22;10522;52.198;9.890;2023-03-31T00:06:56;10.60;99.90
20722;DHT22;10522;52.198;9.890;2023-03-31T00:09:21;10.70;99.90
20722;DHT22;10522;52.198;9.890;2023-03-31T00:11:51;10.70;99.90
20722;DHT22;10522;52.198;9.890;2023-03-31T00:14:18;10.70;99.90
20722;DHT22;10522;52.198;9.890;2023-03-31T00:16:45;10.80;99.90
20722;DHT22;10522;52.198;9.890;2023-03-31T00:19:11;10.90;99.90
20722;DHT22;10522;52.198;9.890;2023-03-31T00:21:43;10.90;99.90
20722;DHT22;10522;52.198;9.890;2023-03-31T00:24:10;10.80;99.90
20722;DHT22;10522;52.198;9.890;2023-03-31T00:26:37;10.70;99.90
20722;DHT22;10522;52.198;9.890;2023-03-31T00:29:04;10.70;99.90
20722;DHT22;10522;52.198;9.890;2023-03-31T00:31:31;10.70;99.90
20722;DHT22;10522;52.198;9.890;2023-03-31T00:33:57;10.70;99.90
20722;DHT22;10522;52.198;9.890;2023-03-31T00:36:23;10.80;99.90
20722;DHT22;10522;52.198;9.890;2023-03-31T00:38:53;10.80;99.90
20722;DHT22;10522;52.198;9.890;2023-03-31T00:41:20;10.90;99.90
20722;DHT22;10522;52.198;9.890;2023-03-31T00:46:33;10.80;99.90
20722;DHT22;10522;52.198;9.890;2023-03-31T00:49:02;10.80;99.90
20722;DHT22;10522;52.198;9.890;2023-03-31T00:51:30;10.90;99.90
20722;DHT22;10522;52.198;9.890;2023-03-31T00:54:02;10.90;99.90
20722;DHT22;10522;52.198;9.890;2023-03-31T00:56:33;10.90;99.90
20722;DHT22;10522;52.198;9.890;2023-03-31T00:59:02;11.00;99.90
20722;DHT22;10522;52.198;9.890;2023-03-31T01:01:28;11.00;99.90
20722;DHT22;10522;52.198;9.890;2023-03-31T01:03:55;11.10;99.90
20722;DHT22;10522;52.198;9.890;2023-03-31T01:06:22;11.20;99.90
20722;DHT22;10522;52.198;9.890;2023-03-31T01:08:50;11.10;99.90
20722;DHT22;10522;52.198;9.890;2023-03-31T01:11:19;11.10;99.90
20722;DHT22;10522;52.198;9.890;2023-03-31T01:13:47;11.00;99.90
20722;DHT22;10522;52.198;9.890;2023-03-31T01:16:16;10.90;99.90
20722;DHT22;10522;52.198;9.890;2023-03-31T01:18:42;10.80;99.90
20722;DHT22;10522;52.198;9.890;2023-03-31T01:32:48;10.80;99.90
20722;DHT22;10522;52.198;9.890;2023-03-31T01:35:35;10.80;99.90
20722;DHT22;10522;52.198;9.890;2023-03-31T01:43:47;10.80;99.90
20722;DHT22;10522;52.198;9.890;2023-03-31T01:46:37;10.70;99.90
20722;DHT22;10522;52.198;9.890;2023-03-31T01:49:20;10.60;99.90
20722;DHT22;10522;52.198;9.890;2023-03-31T01:52:06;10.60;99.90
20722;DHT22;10522;52.198;9.890;2023-03-31T01:54:44;10.50;99.90
20722;DHT22;10522;52.198;9.890;2023-03-31T01:59:51;10.30;99.90
20722;DHT22;10522;52.198;9.890;2023-03-31T02:02:32;10.20;99.90
20722;DHT22;10522;52.198;9.890;2023-03-31T02:05:14;10.10;99.90
20722;DHT22;10522;52.198;9.890;2023-03-31T02:07:52;10.20;99.90
20722;DHT22;10522;52.198;9.890;2023-03-31T02:10:21;10.30;99.90
20722;DHT22;10522;52.198;9.890;2023-03-31T02:12:48;10.30;99.90
20722;DHT22;10522;52.198;9.890;2023-03-31T02:15:19;10.30;99.90
20722;DHT22;10522;52.198;9.890;2023-03-31T02:17:49;10.30;99.90
20722;DHT22;10522;52.198;9.890;2023-03-31T02:20:17;10.40;99.90
20722;DHT22;10522;52.198;9.890;2023-03-31T02:22:52;10.40;99.90
20722;DHT22;10522;52.198;9.890;2023-03-31T02:25:22;10.40;99.90
20722;DHT22;10522;52.198;9.890;2023-03-31T02:27:57;10.60;99.90
20722;DHT22;10522;52.198;9.890;2023-03-31T02:30:29;10.50;99.90
20722;DHT22;10522;52.198;9.890;2023-03-31T02:32:58;10.60;99.90
20722;DHT22;10522;52.198;9.890;2023-03-31T02:35:24;10.50;99.90
20722;DHT22;10522;52.198;9.890;2023-03-31T02:37:50;10.50;99.90
20722;DHT22;10522;52.198;9.890;2023-03-31T02:40:19;10.50;99.90
20722;DHT22;10522;52.198;9.890;2023-03-31T02:42:45;10.60;99.90
20722;DHT22;10522;52.198;9.890;2023-03-31T02:45:40;10.50;99.90
20722;DHT22;10522;52.198;9.890;2023-03-31T02:48:13;10.50;99.90
20722;DHT22;10522;52.198;9.890;2023-03-31T02:59:35;10.40;99.90
20722;DHT22;10522;52.198;9.890;2023-03-31T03:02:16;10.40;99.90
20722;DHT22;10522;52.198;9.890;2023-03-31T03:19:04;10.30;99.90
20722;DHT22;10522;52.198;9.890;2023-03-31T03:21:32;10.20;99.90
20722;DHT22;10522;52.198;9.890;2023-03-31T03:23:58;10.20;99.90
20722;DHT22;10522;52.198;9.890;2023-03-31T03:26:25;10.20;99.90
20722;DHT22;10522;52.198;9.890;2023-03-31T03:28:53;10.20;99.90
20722;DHT22;10522;52.198;9.890;2023-03-31T03:31:20;10.20;99.90
20722;DHT22;10522;52.198;9.890;2023-03-31T03:33:48;10.20;99.90
20722;DHT22;10522;52.198;9.890;2023-03-31T03:36:15;10.10;99.90
20722;DHT22;10522;52.198;9.890;2023-03-31T03:38:41;10.10;99.90
20722;DHT22;10522;52.198;9.890;2023-03-31T03:41:06;10.10;99.90
20722;DHT22;10522;52.198;9.890;2023-03-31T03:43:33;10.20;99.90
20722;DHT22;10522;52.198;9.890;2023-03-31T03:45:59;10.20;99.90
20722;DHT22;10522;52.198;9.890;2023-03-31T03:48:25;10.10;99.90
20722;DHT22;10522;52.198;9.890;2023-03-31T03:50:51;10.20;99.90
20722;DHT22;10522;52.198;9.890;2023-03-31T03:53:19;10.10;99.90
20722;DHT22;10522;52.198;9.890;2023-03-31T03:55:45;10.00;99.90
20722;DHT22;10522;52.198;9.890;2023-03-31T03:58:15;10.20;99.90
20722;DHT22;10522;52.198;9.890;2023-03-31T04:00:41;10.10;99.90
20722;DHT22;10522;52.198;9.890;2023-03-31T04:03:07;10.20;99.90
20722;DHT22;10522;52.198;9.890;2023-03-31T04:05:32;10.10;99.90
20722;DHT22;10522;52.198;9.890;2023-03-31T04:07:58;10.10;99.90
20722;DHT22;10522;52.198;9.890;2023-03-31T04:10:23;9.90;99.90
20722;DHT22;10522;52.198;9.890;2023-03-31T04:12:49;10.00;99.90
20722;DHT22;10522;52.198;9.890;2023-03-31T04:15:15;10.00;99.90
20722;DHT22;10522;52.198;9.890;2023-03-31T04:17:40;10.00;99.90
20722;DHT22;10522;52.198;9.890;2023-03-31T04:20:10;10.10;99.90
20722;DHT22;10522;52.198;9.890;2023-03-31T04:22:36;10.10;99.90
20722;DHT22;10522;52.198;9.890;2023-03-31T04:25:12;10.00;99.90
20722;DHT22;10522;52.198;9.890;2023-03-31T04:27:45;10.10;99.90
20722;DHT22;10522;52.198;9.890;2023-03-31T04:30:15;10.10;99.90
20722;DHT22;10522;52.198;9.890;2023-03-31T04:32:48;10.10;99.90
20722;DHT22;10522;52.198;9.890;2023-03-31T04:35:16;10.10;99.90
20722;DHT22;10522;52.198;9.890;2023-03-31T04:37:43;10.10;99.90
20722;DHT22;10522;52.198;9.890;2023-03-31T04:40:09;10.00;99.90
20722;DHT22;10522;52.198;9.890;2023-03-31T04:42:35;10.10;99.90
20722;DHT22;10522;52.198;9.890;2023-03-31T04:45:01;10.10;99.90
20722;DHT22;10522;52.198;9.890;2023-03-31T04:47:27;10.20;99.90
20722;DHT22;10522;52.198;9.890;2023-03-31T04:49:53;10.20;99.90
20722;DHT22;10522;52.198;9.890;2023-03-31T04:52:18;10.20;99.90
20722;DHT22;10522;52.198;9.890;2023-03-31T04:54:44;10.20;99.90
20722;DHT22;10522;52.198;9.890;2023-03-31T04:57:10;10.20;99.90
20722;DHT22;10522;52.198;9.890;2023-03-31T04:59:36;10.20;99.90
20722;DHT22;10522;52.198;9.890;2023-03-31T05:02:01;10.10;99.90
20722;DHT22;10522;52.198;9.890;2023-03-31T05:04:27;10.20;99.90
20722;DHT22;10522;52.198;9.890;2023-03-31T05:06:52;10.10;99.90
20722;DHT22;10522;52.198;9.890;2023-03-31T05:09:18;10.10;99.90
20722;DHT22;10522;52.198;9.890;2023-03-31T05:11:45;10.10;99.90
20722;DHT22;10522;52.198;9.890;2023-03-31T05:14:10;10.20;99.90
20722;DHT22;10522;52.198;9.890;2023-03-31T05:16:36;10.10;99.90
20722;DHT22;10522;52.198;9.890;2023-03-31T05:19:02;10.00;99.90
20722;DHT22;10522;52.198;9.890;2023-03-31T05:21:28;10.10;99.90
20722;DHT22;10522;52.198;9.890;2023-03-31T05:23:55;10.10;99.90
20722;DHT22;10522;52.198;9.890;2023-03-31T05:26:22;10.10;99.90
20722;DHT22;10522;52.198;9.890;2023-03-31T05:28:50;10.20;99.90
20722;DHT22;10522;52.198;9.890;2023-03-31T05:31:16;10.20;99.90
20722;DHT22;10522;52.198;9.890;2023-03-31T05:33:42;10.20;99.90
20722;DHT22;10522;52.198;9.890;2023-03-31T05:36:17;10.30;99.90
20722;DHT22;10522;52.198;9.890;2023-03-31T05:38:43;10.40;99.90
20722;DHT22;10522;52.198;9.890;2023-03-31T05:41:09;10.30;99.90
20722;DHT22;10522;52.198;9.890;2023-03-31T05:43:36;10.40;99.90
20722;DHT22;10522;52.198;9.890;2023-03-31T05:46:02;10.30;99.90
20722;DHT22;10522;52.198;9.890;2023-03-31T05:48:27;10.40;99.90
20722;DHT22;10522;52.198;9.890;2023-03-31T05:50:59;10.30;99.90
20722;DHT22;10522;52.198;9.890;2023-03-31T05:53:25;10.30;99.90
20722;DHT22;10522;52.198;9.890;2023-03-31T05:55:59;10.30;99.90
20722;DHT22;10522;52.198;9.890;2023-03-31T05:58:26;10.30;99.90
20722;DHT22;10522;52.198;9.890;2023-03-31T06:01:05;10.30;99.90
20722;DHT22;10522;52.198;9.890;2023-03-31T06:03:33;10.30;99.90
20722;DHT22;10522;52.198;9.890;2023-03-31T06:05:59;10.30;99.90
20722;DHT22;10522;52.198;9.890;2023-03-31T06:08:27;10.30;99.90
20722;DHT22;10522;52.198;9.890;2023-03-31T06:10:53;10.30;99.90
20722;DHT22;10522;52.198;9.890;2023-03-31T06:13:18;10.20;99.90
20722;DHT22;10522;52.198;9.890;2023-03-31T06:15:54;10.30;99.90
20722;DHT22;10522;52.198;9.890;2023-03-31T06:18:20;10.40;99.90
20722;DHT22;10522;52.198;9.890;2023-03-31T06:20:46;10.40;99.90
20722;DHT22;10522;52.198;9.890;2023-03-31T06:23:12;10.50;99.90
20722;DHT22;10522;52.198;9.890;2023-03-31T06:25:37;10.50;99.90
20722;DHT22;10522;52.198;9.890;2023-03-31T06:28:03;10.50;99.90
20722;DHT22;10522;52.198;9.890;2023-03-31T06:30:30;10.60;99.90
20722;DHT22;10522;52.198;9.890;2023-03-31T06:32:56;10.60;99.90
20722;DHT22;10522;52.198;9.890;2023-03-31T06:35:21;10.60;99.90
20722;DHT22;10522;52.198;9.890;2023-03-31T06:37:47;10.60;99.90
20722;DHT22;10522;52.198;9.890;2023-03-31T06:40:13;10.50;99.90
20722;DHT22;10522;52.198;9.890;2023-03-31T06:42:40;10.50;99.90
20722;DHT22;10522;52.198;9.890;2023-03-31T06:45:05;10.40;99.90
20722;DHT22;10522;52.198;9.890;2023-03-31T06:47:31;10.40;99.90
20722;DHT22;10522;52.198;9.890;2023-03-31T06:49:57;10.40;99.90
20722;DHT22;10522;52.198;9.890;2023-03-31T06:52:22;10.40;99.90
20722;DHT22;10522;52.198;9.890;2023-03-31T06:54:48;10.50;99.90
20722;DHT22;10522;52.198;9.890;2023-03-31T06:57:13;10.50;99.90
20722;DHT22;10522;52.198;9.890;2023-03-31T06:59:39;10.50;99.90
20722;DHT22;10522;52.198;9.890;2023-03-31T07:02:05;10.60;99.90
20722;DHT22;10522;52.198;9.890;2023-03-31T07:04:31;10.50;99.90
20722;DHT22;10522;52.198;9.890;2023-03-31T07:06:58;10.60;99.90
20722;DHT22;10522;52.198;9.890;2023-03-31T07:09:23;10.70;99.90
20722;DHT22;10522;52.198;9.890;2023-03-31T07:11:49;10.60;99.90
20722;DHT22;10522;52.198;9.890;2023-03-31T07:14:15;10.50;99.90
20722;DHT22;10522;52.198;9.890;2023-03-31T07:16:40;10.50;99.90
20722;DHT22;10522;52.198;9.890;2023-03-31T07:19:06;10.50;99.90
20722;DHT22;10522;52.198;9.890;2023-03-31T07:21:32;10.50;99.90
20722;DHT22;10522;52.198;9.890;2023-03-31T07:23:58;10.50;99.90
20722;DHT22;10522;52.198;9.890;2023-03-31T07:26:24;10.60;99.90
20722;DHT22;10522;52.198;9.890;2023-03-31T07:28:51;10.60;99.90
20722;DHT22;10522;52.198;9.890;2023-03-31T07:31:17;10.60;99.90
20722;DHT22;10522;52.198;9.890;2023-03-31T07:33:42;10.60;99.90
20722;DHT22;10522;52.198;9.890;2023-03-31T07:36:08;10.70;99.90
20722;DHT22;10522;52.198;9.890;2023-03-31T07:38:35;10.70;99.90
20722;DHT22;10522;52.198;9.890;2023-03-31T07:41:01;10.80;99.90
20722;DHT22;10522;52.198;9.890;2023-03-31T07:43:27;10.70;99.90
20722;DHT22;10522;52.198;9.890;2023-03-31T07:45:52;10.80;99.90
20722;DHT22;10522;52.198;9.890;2023-03-31T07:48:18;10.80;99.90
20722;DHT22;10522;52.198;9.890;2023-03-31T07:50:43;10.90;99.90
20722;DHT22;10522;52.198;9.890;2023-03-31T07:53:09;10.80;99.90
20722;DHT22;10522;52.198;9.890;2023-03-31T07:55:35;10.90;99.90
20722;DHT22;10522;52.198;9.890;2023-03-31T07:58:01;11.00;99.90
20722;DHT22;10522;52.198;9.890;2023-03-31T08:00:27;11.10;99.90
20722;DHT22;10522;52.198;9.890;2023-03-31T08:02:52;11.30;99.90
20722;DHT22;10522;52.198;9.890;2023-03-31T08:05:19;11.20;99.90
20722;DHT22;10522;52.198;9.890;2023-03-31T08:07:46;11.30;99.90
20722;DHT22;10522;52.198;9.890;2023-03-31T08:10:19;11.30;99.90
20722;DHT22;10522;52.198;9.890;2023-03-31T08:12:45;11.20;99.90
20722;DHT22;10522;52.198;9.890;2023-03-31T08:15:11;11.30;99.90
20722;DHT22;10522;52.198;9.890;2023-03-31T08:17:38;11.20;99.90
20722;DHT22;10522;52.198;9.890;2023-03-31T08:20:04;11.20;99.90
20722;DHT22;10522;52.198;9.890;2023-03-31T08:22:35;11.30;99.90
20722;DHT22;10522;52.198;9.890;2023-03-31T08:25:01;11.30;99.90
20722;DHT22;10522;52.198;9.890;2023-03-31T08:27:27;11.50;99.90
20722;DHT22;10522;52.198;9.890;2023-03-31T08:29:52;11.40;99.90
20722;DHT22;10522;52.198;9.890;2023-03-31T08:32:21;11.60;99.90
20722;DHT22;10522;52.198;9.890;2023-03-31T08:34:47;11.50;99.90
20722;DHT22;10522;52.198;9.890;2023-03-31T08:37:13;11.50;99.90
20722;DHT22;10522;52.198;9.890;2023-03-31T08:39:41;11.60;99.90
20722;DHT22;10522;52.198;9.890;2023-03-31T08:47:34;11.80;99.90
20722;DHT22;10522;52.198;9.890;2023-03-31T08:50:12;11.80;99.90
20722;DHT22;10522;52.198;9.890;2023-03-31T08:52:44;11.90;99.90
20722;DHT22;10522;52.198;9.890;2023-03-31T08:55:21;11.80;99.90
20722;DHT22;10522;52.198;9.890;2023-03-31T08:57:56;11.90;99.90
20722;DHT22;10522;52.198;9.890;2023-03-31T09:00:24;11.80;99.90
20722;DHT22;10522;52.198;9.890;2023-03-31T09:02:59;11.80;99.90
20722;DHT22;10522;52.198;9.890;2023-03-31T09:05:44;12.00;99.90
20722;DHT22;10522;52.198;9.890;2023-03-31T09:11:05;11.80;99.90
20722;DHT22;10522;52.198;9.890;2023-03-31T09:19:18;11.50;99.90
20722;DHT22;10522;52.198;9.890;2023-03-31T09:21:52;11.40;99.90
20722;DHT22;10522;52.198;9.890;2023-03-31T09:24:26;11.50;99.90
20722;DHT22;10522;52.198;9.890;2023-03-31T09:26:56;11.20;99.90
20722;DHT22;10522;52.198;9.890;2023-03-31T09:32:01;11.10;99.90
20722;DHT22;10522;52.198;9.890;2023-03-31T09:34:34;11.00;99.90
20722;DHT22;10522;52.198;9.890;2023-03-31T09:37:00;11.00;99.90
20722;DHT22;10522;52.198;9.890;2023-03-31T09:39:26;11.00;99.90
20722;DHT22;10522;52.198;9.890;2023-03-31T09:41:52;10.90;99.90
20722;DHT22;10522;52.198;9.890;2023-03-31T09:44:39;10.90;99.90
20722;DHT22;10522;52.198;9.890;2023-03-31T09:47:08;10.90;99.90
20722;DHT22;10522;52.198;9.890;2023-03-31T09:49:36;10.70;99.90
20722;DHT22;10522;52.198;9.890;2023-03-31T09:52:31;10.60;99.90
20722;DHT22;10522;52.198;9.890;2023-03-31T09:54:59;10.70;99.90
20722;DHT22;10522;52.198;9.890;2023-03-31T09:57:28;10.60;99.90
20722;DHT22;10522;52.198;9.890;2023-03-31T10:00:05;10.60;99.90
20722;DHT22;10522;52.198;9.890;2023-03-31T10:02:38;10.50;99.90
20722;DHT22;10522;52.198;9.890;2023-03-31T10:05:07;10.50;99.90
20722;DHT22;10522;52.198;9.890;2023-03-31T10:07:44;10.60;99.90
20722;DHT22;10522;52.198;9.890;2023-03-31T10:10:26;10.60;99.90
20722;DHT22;10522;52.198;9.890;2023-03-31T10:12:53;10.50;99.90
20722;DHT22;10522;52.198;9.890;2023-03-31T10:15:21;10.60;99.90
20722;DHT22;10522;52.198;9.890;2023-03-31T10:17:49;10.60;99.90
20722;DHT22;10522;52.198;9.890;2023-03-31T10:20:26;10.60;99.90
20722;DHT22;10522;52.198;9.890;2023-03-31T10:22:54;10.60;99.90
20722;DHT22;10522;52.198;9.890;2023-03-31T10:25:23;10.60;99.90
20722;DHT22;10522;52.198;9.890;2023-03-31T10:27:54;10.60;99.90
20722;DHT22;10522;52.198;9.890;2023-03-31T10:30:26;10.60;99.90
20722;DHT22;10522;52.198;9.890;2023-03-31T10:32:53;10.60;99.90
20722;DHT22;10522;52.198;9.890;2023-03-31T10:35:32;10.70;99.90
20722;DHT22;10522;52.198;9.890;2023-03-31T10:38:09;10.60;99.90
20722;DHT22;10522;52.198;9.890;2023-03-31T10:40:36;10.60;99.90
20722;DHT22;10522;52.198;9.890;2023-03-31T10:43:05;10.60;99.90
20722;DHT22;10522;52.198;9.890;2023-03-31T10:45:43;10.50;99.90
20722;DHT22;10522;52.198;9.890;2023-03-31T10:48:24;10.50;99.90
20722;DHT22;10522;52.198;9.890;2023-03-31T10:50:51;10.40;99.90
20722;DHT22;10522;52.198;9.890;2023-03-31T10:53:17;10.40;99.90
20722;DHT22;10522;52.198;9.890;2023-03-31T10:58:31;10.20;99.90
20722;DHT22;10522;52.198;9.890;2023-03-31T11:01:13;10.20;99.90
20722;DHT22;10522;52.198;9.890;2023-03-31T11:06:38;10.30;99.90
20722;DHT22;10522;52.198;9.890;2023-03-31T11:09:22;10.30;99.90
20722;DHT22;10522;52.198;9.890;2023-03-31T11:14:53;10.20;99.90
20722;DHT22;10522;52.198;9.890;2023-03-31T11:22:55;10.30;99.90
20722;DHT22;10522;52.198;9.890;2023-03-31T11:25:51;10.40;99.90
20722;DHT22;10522;52.198;9.890;2023-03-31T11:28:28;10.40;99.90
20722;DHT22;10522;52.198;9.890;2023-03-31T11:31:39;10.50;99.90
20722;DHT22;10522;52.198;9.890;2023-03-31T11:34:14;10.60;99.90
20722;DHT22;10522;52.198;9.890;2023-03-31T11:42:48;11.20;99.90
20722;DHT22;10522;52.198;9.890;2023-03-31T11:45:20;11.20;99.90
20722;DHT22;10522;52.198;9.890;2023-03-31T11:47:49;11.40;99.90
20722;DHT22;10522;52.198;9.890;2023-03-31T11:50:23;11.60;99.90
20722;DHT22;10522;52.198;9.890;2023-03-31T11:53:04;11.70;99.90
20722;DHT22;10522;52.198;9.890;2023-03-31T11:55:31;11.50;99.90
20722;DHT22;10522;52.198;9.890;2023-03-31T11:58:17;11.50;99.90
20722;DHT22;10522;52.198;9.890;2023-03-31T12:00:51;11.50;99.90
20722;DHT22;10522;52.198;9.890;2023-03-31T12:03:45;11.40;99.90
20722;DHT22;10522;52.198;9.890;2023-03-31T12:06:14;11.30;99.90
20722;DHT22;10522;52.198;9.890;2023-03-31T12:09:02;11.30;99.90
20722;DHT22;10522;52.198;9.890;2023-03-31T12:11:42;11.30;99.90
20722;DHT22;10522;52.198;9.890;2023-03-31T12:17:16;11.20;99.90
20722;DHT22;10522;52.198;9.890;2023-03-31T12:19:52;11.30;99.90
20722;DHT22;10522;52.198;9.890;2023-03-31T12:22:31;11.20;99.90
20722;DHT22;10522;52.198;9.890;2023-03-31T12:25:00;11.30;99.90
20722;DHT22;10522;52.198;9.890;2023-03-31T12:27:38;11.40;99.90
20722;DHT22;10522;52.198;9.890;2023-03-31T12:33:26;11.40;99.90
20722;DHT22;10522;52.198;9.890;2023-03-31T12:36:17;11.50;99.90
20722;DHT22;10522;52.198;9.890;2023-03-31T12:39:09;11.50;99.90
20722;DHT22;10522;52.198;9.890;2023-03-31T12:47:33;11.60;99.90
20722;DHT22;10522;52.198;9.890;2023-03-31T12:56:01;12.00;99.90
20722;DHT22;10522;52.198;9.890;2023-03-31T13:03:47;12.30;99.90
20722;DHT22;10522;52.198;9.890;2023-03-31T13:06:47;12.20;99.90
20722;DHT22;10522;52.198;9.890;2023-03-31T13:11:41;12.40;99.90
20722;DHT22;10522;52.198;9.890;2023-03-31T13:14:29;12.40;99.90
20722;DHT22;10522;52.198;9.890;2023-03-31T13:19:39;12.40;99.90
20722;DHT22;10522;52.198;9.890;2023-03-31T13:22:05;12.40;99.90
20722;DHT22;10522;52.198;9.890;2023-03-31T13:24:32;12.50;99.90
20722;DHT22;10522;52.198;9.890;2023-03-31T13:50:36;12.30;99.90
20722;DHT22;10522;52.198;9.890;2023-03-31T14:02:16;12.70;99.90
20722;DHT22;10522;52.198;9.890;2023-03-31T14:05:07;12.80;99.90
20722;DHT22;10522;52.198;9.890;2023-03-31T14:07:43;13.00;99.90
20722;DHT22;10522;52.198;9.890;2023-03-31T14:10:36;13.30;99.90
20722;DHT22;10522;52.198;9.890;2023-03-31T14:13:12;13.70;99.90
20722;DHT22;10522;52.198;9.890;2023-03-31T14:15:51;14.00;99.90
20722;DHT22;10522;52.198;9.890;2023-03-31T14:18:29;13.90;99.90
20722;DHT22;10522;52.198;9.890;2023-03-31T14:24:11;13.90;99.90
20722;DHT22;10522;52.198;9.890;2023-03-31T14:32:21;13.70;99.90
20722;DHT22;10522;52.198;9.890;2023-03-31T14:37:34;13.60;99.90
20722;DHT22;10522;52.198;9.890;2023-03-31T14:40:00;13.50;99.90
20722;DHT22;10522;52.198;9.890;2023-03-31T14:42:39;13.40;99.90
20722;DHT22;10522;52.198;9.890;2023-03-31T14:45:20;13.50;99.90
20722;DHT22;10522;52.198;9.890;2023-03-31T14:48:13;13.40;99.90
20722;DHT22;10522;52.198;9.890;2023-03-31T14:50:45;12.80;99.90
20722;DHT22;10522;52.198;9.890;2023-03-31T14:53:15;12.40;99.90
20722;DHT22;10522;52.198;9.890;2023-03-31T14:55:42;12.20;99.90
20722;DHT22;10522;52.198;9.890;2023-03-31T14:58:10;11.90;99.90
20722;DHT22;10522;52.198;9.890;2023-03-31T15:00:38;11.60;99.90
20722;DHT22;10522;52.198;9.890;2023-03-31T15:03:07;11.60;99.90
20722;DHT22;10522;52.198;9.890;2023-03-31T15:05:35;11.60;99.90
20722;DHT22;10522;52.198;9.890;2023-03-31T15:08:05;11.60;99.90
20722;DHT22;10522;52.198;9.890;2023-03-31T15:10:36;11.80;99.90
20722;DHT22;10522;52.198;9.890;2023-03-31T15:13:11;11.90;99.90
20722;DHT22;10522;52.198;9.890;2023-03-31T15:15:40;12.20;99.90
20722;DHT22;10522;52.198;9.890;2023-03-31T15:18:05;12.30;99.90
20722;DHT22;10522;52.198;9.890;2023-03-31T15:20:36;12.40;99.90
20722;DHT22;10522;52.198;9.890;2023-03-31T15:23:04;12.40;99.90
20722;DHT22;10522;52.198;9.890;2023-03-31T15:25:43;12.30;99.90
20722;DHT22;10522;52.198;9.890;2023-03-31T15:28:14;12.20;99.90
20722;DHT22;10522;52.198;9.890;2023-03-31T15:30:42;12.10;99.90
20722;DHT22;10522;52.198;9.890;2023-03-31T15:33:18;12.00;99.90
20722;DHT22;10522;52.198;9.890;2023-03-31T15:35:46;11.90;99.90
20722;DHT22;10522;52.198;9.890;2023-03-31T15:38:13;11.90;99.90
20722;DHT22;10522;52.198;9.890;2023-03-31T15:40:42;11.90;99.90
20722;DHT22;10522;52.198;9.890;2023-03-31T15:43:18;11.90;99.90
20722;DHT22;10522;52.198;9.890;2023-03-31T15:45:59;11.80;99.90
20722;DHT22;10522;52.198;9.890;2023-03-31T15:48:29;11.70;99.90
20722;DHT22;10522;52.198;9.890;2023-03-31T15:51:05;11.60;99.90
20722;DHT22;10522;52.198;9.890;2023-03-31T15:53:47;11.60;99.90
20722;DHT22;10522;52.198;9.890;2023-03-31T15:59:21;11.50;99.90
20722;DHT22;10522;52.198;9.890;2023-03-31T16:01:48;11.50;99.90
20722;DHT22;10522;52.198;9.890;2023-03-31T16:04:14;11.50;99.90
20722;DHT22;10522;52.198;9.890;2023-03-31T16:06:53;11.50;99.90
20722;DHT22;10522;52.198;9.890;2023-03-31T16:09:27;11.60;99.90
20722;DHT22;10522;52.198;9.890;2023-03-31T16:11:59;11.50;99.90
20722;DHT22;10522;52.198;9.890;2023-03-31T16:14:36;11.60;99.90
20722;DHT22;10522;52.198;9.890;2023-03-31T16:17:30;11.60;99.90
20722;DHT22;10522;52.198;9.890;2023-03-31T16:20:07;11.60;99.90
20722;DHT22;10522;52.198;9.890;2023-03-31T16:22:40;11.50;99.90
20722;DHT22;10522;52.198;9.890;2023-03-31T16:25:09;11.50;99.90
20722;DHT22;10522;52.198;9.890;2023-03-31T16:27:44;11.50;99.90
20722;DHT22;10522;52.198;9.890;2023-03-31T16:30:16;11.50;99.90
20722;DHT22;10522;52.198;9.890;2023-03-31T16:35:32;11.60;99.90
20722;DHT22;10522;52.198;9.890;2023-03-31T16:37:58;11.60;99.90
20722;DHT22;10522;52.198;9.890;2023-03-31T16:40:27;11.50;99.90
20722;DHT22;10522;52.198;9.890;2023-03-31T16:43:16;11.50;99.90
20722;DHT22;10522;52.198;9.890;2023-03-31T16:45:47;11.50;99.90
20722;DHT22;10522;52.198;9.890;2023-03-31T16:48:15;11.50;99.90
20722;DHT22;10522;52.198;9.890;2023-03-31T16:50:42;11.40;99.90
20722;DHT22;10522;52.198;9.890;2023-03-31T16:53:07;11.40;99.90
20722;DHT22;10522;52.198;9.890;2023-03-31T16:55:34;11.40;99.90
20722;DHT22;10522;52.198;9.890;2023-03-31T16:57:59;11.40;99.90
20722;DHT22;10522;52.198;9.890;2023-03-31T17:00:29;11.30;99.90
20722;DHT22;10522;52.198;9.890;2023-03-31T17:02:54;11.30;99.90
20722;DHT22;10522;52.198;9.890;2023-03-31T17:05:21;11.30;99.90
20722;DHT22;10522;52.198;9.890;2023-03-31T17:07:47;11.30;99.90
20722;DHT22;10522;52.198;9.890;2023-03-31T17:10:13;11.40;99.90
20722;DHT22;10522;52.198;9.890;2023-03-31T17:12:38;11.30;99.90
20722;DHT22;10522;52.198;9.890;2023-03-31T17:15:04;11.20;99.90
20722;DHT22;10522;52.198;9.890;2023-03-31T17:17:30;11.20;99.90
20722;DHT22;10522;52.198;9.890;2023-03-31T17:19:56;11.30;99.90
20722;DHT22;10522;52.198;9.890;2023-03-31T17:22:23;11.20;99.90
20722;DHT22;10522;52.198;9.890;2023-03-31T17:24:49;11.10;99.90
20722;DHT22;10522;52.198;9.890;2023-03-31T17:27:21;11.10;99.90
20722;DHT22;10522;52.198;9.890;2023-03-31T17:29:47;11.10;99.90
20722;DHT22;10522;52.198;9.890;2023-03-31T17:32:12;11.10;99.90
20722;DHT22;10522;52.198;9.890;2023-03-31T17:34:39;11.00;99.90
20722;DHT22;10522;52.198;9.890;2023-03-31T17:37:05;11.00;99.90
20722;DHT22;10522;52.198;9.890;2023-03-31T17:39:31;11.00;99.90
20722;DHT22;10522;52.198;9.890;2023-03-31T17:41:56;10.90;99.90
20722;DHT22;10522;52.198;9.890;2023-03-31T17:44:23;10.90;99.90
20722;DHT22;10522;52.198;9.890;2023-03-31T17:46:48;10.90;99.90
20722;DHT22;10522;52.198;9.890;2023-03-31T17:49:14;11.00;99.90
20722;DHT22;10522;52.198;9.890;2023-03-31T17:51:40;10.90;99.90
20722;DHT22;10522;52.198;9.890;2023-03-31T17:54:05;11.00;99.90
20722;DHT22;10522;52.198;9.890;2023-03-31T17:56:31;11.00;99.90
20722;DHT22;10522;52.198;9.890;2023-03-31T17:58:56;10.90;99.90
20722;DHT22;10522;52.198;9.890;2023-03-31T18:01:22;11.00;99.90
20722;DHT22;10522;52.198;9.890;2023-03-31T18:03:47;11.00;99.90
20722;DHT22;10522;52.198;9.890;2023-03-31T18:06:13;11.00;99.90
20722;DHT22;10522;52.198;9.890;2023-03-31T18:08:40;10.90;99.90
20722;DHT22;10522;52.198;9.890;2023-03-31T18:11:07;10.90;99.90
20722;DHT22;10522;52.198;9.890;2023-03-31T18:13:34;10.90;99.90
20722;DHT22;10522;52.198;9.890;2023-03-31T18:16:01;10.90;99.90
20722;DHT22;10522;52.198;9.890;2023-03-31T18:18:28;10.90;99.90
20722;DHT22;10522;52.198;9.890;2023-03-31T18:20:54;10.80;99.90
20722;DHT22;10522;52.198;9.890;2023-03-31T18:23:20;10.70;99.90
20722;DHT22;10522;52.198;9.890;2023-03-31T18:25:46;10.80;99.90
20722;DHT22;10522;52.198;9.890;2023-03-31T18:28:13;10.80;99.90
20722;DHT22;10522;52.198;9.890;2023-03-31T18:30:38;10.80;99.90